Time;durP1;ratioP1;P1;durP2;ratioP2;P2;SDS_P1;SDS_P2;PMS_P1;PMS_P2;Temp;Humidity;BMP_temperature;BMP_pressure;BME280_temperature;BME280_humidity;BME280_pressure;Samples;Min_cycle;Max_cycle;Signal;HPM_P1;HPM_P2
2024/01/13 00:01:40;;;;;;;10.87;10.57;;;-2.00;99.90;;;;;;6226355;23;20195;-84
2024/01/13 00:04:18;;;;;;;10.87;10.57;;;-2.00;99.90;;;;;;6226135;23;20208;-85
2024/01/13 00:07:13;;;;;;;11.33;10.93;;;-2.00;99.90;;;;;;6226919;23;20199;-86
2024/01/13 00:10:09;;;;;;;10.63;10.33;;;-2.10;99.90;;;;;;6225941;22;20207;-87
2024/01/13 00:13:00;;;;;;;;;;;;;;;;;;;;;
2024/01/13 00:18:46;;;;;;;10.73;10.43;;;-2.10;99.90;;;;;;6225239;22;20234;-86
2024/01/13 00:24:34;;;;;;;10.93;10.63;;;-2.10;99.90;;;;;;6196078;22;20199;-87
2024/01/13 00:27:48;;;;;;;;;;;;;;;;;;;;;
2024/01/13 00:34:16;;;;;;;10.73;10.43;;;-2.10;99.90;;;;;;6226930;23;20194;-87
2024/01/13 00:37:24;;;;;;;10.53;10.23;;;-2.10;99.90;;;;;;6228481;23;20223;-87
2024/01/13 00:43:42;;;;;;;10.93;10.60;;;-2.10;99.90;;;;;;6185803;23;20211;-87
2024/01/13 00:46:39;;;;;;;10.73;10.43;;;-2.00;99.90;;;;;;6229317;23;20198;-87
2024/01/13 00:49:58;;;;;;;;;;;;;;;;;;;;;
2024/01/13 00:52:59;;;;;;;10.57;10.27;;;-2.10;99.90;;;;;;6250757;22;20196;-86
2024/01/13 00:58:47;;;;;;;11.20;10.80;;;-2.00;99.90;;;;;;6231003;22;20273;-87
2024/01/13 01:01:45;;;;;;;10.60;10.30;;;-2.00;99.90;;;;;;6244822;23;20253;-87
2024/01/13 01:10:48;;;;;;;10.70;10.40;;;-2.10;99.90;;;;;;6228358;23;20202;-85
2024/01/13 01:17:25;;;;;;;11.20;10.80;;;-2.10;99.90;;;;;;6221001;23;20202;-85
2024/01/13 01:20:32;;;;;;;;;;;;;;;;;;;;;
2024/01/13 01:26:29;;;;;;;10.60;10.30;;;-2.20;99.90;;;;;;6237978;23;20286;-86
2024/01/13 01:29:33;;;;;;;10.70;10.40;;;-2.20;99.90;;;;;;6232885;22;20210;-87
2024/01/13 01:32:12;;;;;;;10.90;10.60;;;-2.20;99.90;;;;;;6204888;23;20202;-87
2024/01/13 01:35:02;;;;;;;10.53;10.23;;;-2.20;99.90;;;;;;6234187;23;20898;-86
2024/01/13 01:41:08;;;;;;;10.43;10.13;;;-2.30;99.90;;;;;;6225159;23;20206;-83
2024/01/13 01:47:31;;;;;;;10.37;10.07;;;-2.30;99.90;;;;;;6193981;23;20203;-83
2024/01/13 01:50:18;;;;;;;10.37;10.07;;;-2.30;99.90;;;;;;6024053;23;20234;-83
2024/01/13 01:53:34;;;;;;;10.80;10.50;;;-2.30;99.90;;;;;;6061520;23;20205;-84
2024/01/13 01:56:25;;;;;;;;;;;;;;;;;;;;;
2024/01/13 02:02:57;;;;;;;10.70;10.40;;;-2.30;99.90;;;;;;6061707;23;20206;-85
2024/01/13 02:06:02;;;;;;;;;;;;;;;;;;;;;
2024/01/13 02:09:04;;;;;;;10.60;10.30;;;-2.30;99.90;;;;;;6045108;23;20246;-85
2024/01/13 02:12:04;;;;;;;10.43;10.13;;;-2.40;99.90;;;;;;6045469;23;20201;-87
2024/01/13 02:14:53;;;;;;;10.63;10.33;;;-2.30;99.90;;;;;;6045098;23;20203;-85
2024/01/13 02:18:13;;;;;;;10.80;10.50;;;-2.30;99.90;;;;;;6044694;23;20226;-86
2024/01/13 02:21:17;;;;;;;10.67;10.37;;;-2.40;99.90;;;;;;6044559;23;20202;-86
2024/01/13 02:24:12;;;;;;;10.43;10.13;;;-2.40;99.90;;;;;;6044946;23;20257;-83
2024/01/13 02:29:48;;;;;;;10.67;10.37;;;-2.30;99.90;;;;;;6043707;23;20210;-83
2024/01/13 02:32:23;;;;;;;10.80;10.50;;;-2.40;99.90;;;;;;6044792;23;20203;-83
2024/01/13 02:35:00;;;;;;;10.40;10.10;;;-2.30;99.90;;;;;;6045288;23;20248;-83
2024/01/13 02:37:35;;;;;;;10.70;10.40;;;-2.30;99.90;;;;;;6044871;23;20202;-83
2024/01/13 02:40:25;;;;;;;10.73;10.43;;;-2.30;99.90;;;;;;6044310;23;20195;-84
2024/01/13 02:43:22;;;;;;;10.60;10.30;;;-2.30;99.90;;;;;;6044990;23;20197;-83
2024/01/13 02:46:17;;;;;;;10.80;10.50;;;-2.30;99.90;;;;;;6060377;23;20183;-83
2024/01/13 02:49:08;;;;;;;10.77;10.47;;;-2.40;99.90;;;;;;6137017;22;20255;-81
2024/01/13 02:51:58;;;;;;;10.67;10.37;;;-2.30;99.90;;;;;;6245712;22;20259;-83
2024/01/13 02:54:59;;;;;;;10.73;10.43;;;-2.40;99.90;;;;;;6227186;23;20210;-82
2024/01/13 02:58:18;;;;;;;10.50;10.20;;;-2.40;99.90;;;;;;6222549;23;20205;-84
2024/01/13 03:01:12;;;;;;;;;;;;;;;;;;;;;
2024/01/13 03:03:53;;;;;;;10.60;10.30;;;-2.30;99.90;;;;;;6227334;23;20203;-84
2024/01/13 03:06:43;;;;;;;10.70;10.40;;;-2.30;99.90;;;;;;6226238;23;20198;-84
2024/01/13 03:09:48;;;;;;;;;;;;;;;;;;;;;
2024/01/13 03:12:30;;;;;;;10.77;10.47;;;-2.20;99.90;;;;;;6215838;23;20207;-84
2024/01/13 03:16:12;;;;;;;10.50;10.20;;;-2.20;99.90;;;;;;6226892;23;20201;-84
2024/01/13 03:19:09;;;;;;;10.57;10.27;;;-2.20;99.90;;;;;;6226454;22;20277;-84
2024/01/13 03:21:50;;;;;;;9.97;9.67;;;-2.10;99.90;;;;;;6226720;23;20204;-84
2024/01/13 03:24:30;;;;;;;;;;;;;;;;;;;;;
2024/01/13 03:27:20;;;;;;;10.73;10.43;;;-2.10;99.90;;;;;;6226450;23;20195;-83
2024/01/13 03:30:46;;;;;;;10.80;10.50;;;-2.10;99.90;;;;;;6225912;22;20242;-83
2024/01/13 03:33:50;;;;;;;;;;;;;;;;;;;;;
2024/01/13 03:36:46;;;;;;;;;;;;;;;;;;;;;
2024/01/13 03:42:34;;;;;;;10.47;10.17;;;-2.00;99.90;;;;;;6223884;23;20285;-84
2024/01/13 03:45:18;;;;;;;10.50;10.20;;;-2.10;99.90;;;;;;6225811;23;20250;-83
2024/01/13 03:47:56;;;;;;;10.67;10.37;;;-2.00;99.90;;;;;;6225864;22;20226;-83
2024/01/13 03:57:13;;;;;;;10.80;10.50;;;-2.00;99.90;;;;;;6222591;23;20279;-84
2024/01/13 03:59:55;;;;;;;10.60;10.30;;;-2.00;99.90;;;;;;6227828;22;20204;-84
2024/01/13 04:02:48;;;;;;;10.03;9.73;;;-2.00;99.90;;;;;;6228366;23;20199;-84
2024/01/13 04:05:43;;;;;;;;;;;;;;;;;;;;;
2024/01/13 04:08:38;;;;;;;10.30;10.00;;;-2.00;99.90;;;;;;6227304;22;20199;-84
2024/01/13 04:12:02;;;;;;;10.60;10.30;;;-2.00;99.90;;;;;;6231347;23;20207;-83
2024/01/13 04:15:00;;;;;;;10.47;10.17;;;-2.00;99.90;;;;;;6248927;22;20199;-83
2024/01/13 04:17:53;;;;;;;10.20;9.90;;;-2.00;99.90;;;;;;6249167;22;20175;-82
2024/01/13 04:20:52;;;;;;;10.33;10.03;;;-1.90;99.90;;;;;;6247185;22;20202;-84
2024/01/13 04:24:10;;;;;;;10.30;10.00;;;-2.00;99.90;;;;;;6226975;23;20205;-84
2024/01/13 04:27:24;;;;;;;10.40;10.10;;;-2.00;99.90;;;;;;6227681;23;20558;-84
2024/01/13 04:30:20;;;;;;;;;;;;;;;;;;;;;
2024/01/13 04:33:25;;;;;;;10.50;10.20;;;-2.00;99.90;;;;;;6228349;23;20195;-83
2024/01/13 04:36:04;;;;;;;10.63;10.33;;;-2.00;99.90;;;;;;6250463;22;20202;-82
2024/01/13 04:38:50;;;;;;;10.50;10.20;;;-2.10;99.90;;;;;;6249877;22;20205;-81
2024/01/13 04:42:03;;;;;;;10.40;10.10;;;-2.00;99.90;;;;;;6235103;22;20224;-83
2024/01/13 04:44:48;;;;;;;10.43;10.13;;;-2.00;99.90;;;;;;6227511;23;20682;-84
2024/01/13 04:51:04;;;;;;;10.53;10.23;;;-2.00;99.90;;;;;;6045566;23;20286;-83
2024/01/13 04:53:53;;;;;;;10.63;10.33;;;-2.00;99.90;;;;;;6045583;23;20210;-84
2024/01/13 04:59:31;;;;;;;10.73;10.43;;;-2.00;99.90;;;;;;6047103;23;20310;-84
2024/01/13 05:02:40;;;;;;;10.53;10.23;;;-2.00;99.90;;;;;;6046305;23;20199;-84
2024/01/13 05:05:27;;;;;;;10.43;10.13;;;-1.90;99.90;;;;;;6045835;23;20192;-83
2024/01/13 05:08:18;;;;;;;10.47;10.17;;;-1.90;99.90;;;;;;6046098;23;20222;-84
2024/01/13 05:11:10;;;;;;;10.73;10.43;;;-1.80;99.90;;;;;;6045446;23;20225;-84
2024/01/13 05:13:59;;;;;;;10.50;10.20;;;-1.90;99.90;;;;;;6045144;23;20286;-84
2024/01/13 05:16:41;;;;;;;10.60;10.30;;;-1.90;99.90;;;;;;6045674;23;20196;-84
2024/01/13 05:19:12;;;;;;;10.70;10.40;;;-1.90;99.90;;;;;;6045448;23;20245;-84
2024/01/13 05:22:21;;;;;;;;;;;;;;;;;;;;;
2024/01/13 05:25:07;;;;;;;10.37;10.07;;;-1.80;99.90;;;;;;6045388;23;20207;-84
2024/01/13 05:28:21;;;;;;;10.67;10.37;;;-1.80;99.90;;;;;;6045128;23;20207;-85
2024/01/13 05:31:22;;;;;;;10.70;10.40;;;-1.80;99.90;;;;;;6062448;23;20214;-84
2024/01/13 05:34:06;;;;;;;10.27;9.97;;;-1.90;99.90;;;;;;6096506;23;20218;-84
2024/01/13 05:37:08;;;;;;;10.30;10.00;;;-1.90;99.90;;;;;;6059245;23;20216;-82
2024/01/13 05:39:49;;;;;;;10.60;10.30;;;-1.90;99.90;;;;;;6062311;23;20255;-83
2024/01/13 05:43:02;;;;;;;10.60;10.30;;;-1.90;99.90;;;;;;6049021;23;20256;-86
2024/01/13 05:46:01;;;;;;;10.60;10.30;;;-1.90;99.90;;;;;;6045426;23;20629;-84
2024/01/13 05:49:20;;;;;;;10.60;10.30;;;-2.00;99.90;;;;;;6085130;23;20210;-85
2024/01/13 05:52:03;;;;;;;10.60;10.30;;;-2.00;99.90;;;;;;6189665;23;20261;-85
2024/01/13 05:55:10;;;;;;;10.70;10.40;;;-2.00;99.90;;;;;;6227311;23;20191;-85
2024/01/13 06:00:46;;;;;;;10.40;10.10;;;-1.90;99.90;;;;;;6205176;23;20207;-85
2024/01/13 06:03:40;;;;;;;;;;;;;;;;;;;;;
2024/01/13 06:07:02;;;;;;;;;;;;;;;;;;;;;
2024/01/13 06:16:39;;;;;;;10.27;9.97;;;-1.70;99.90;;;;;;6221863;23;20199;-85
2024/01/13 06:23:02;;;;;;;10.43;10.13;;;-1.70;99.90;;;;;;6236276;22;20232;-85
2024/01/13 06:25:53;;;;;;;;;;;;;;;;;;;;;
2024/01/13 06:28:38;;;;;;;;;;;;;;;;;;;;;
2024/01/13 06:31:53;;;;;;;10.27;9.97;;;-1.70;99.90;;;;;;6228336;23;20195;-85
2024/01/13 06:38:18;;;;;;;10.30;10.00;;;-1.70;99.90;;;;;;6123880;23;20204;-85
2024/01/13 06:44:52;;;;;;;10.60;10.30;;;-1.80;99.90;;;;;;6225632;23;20210;-85
2024/01/13 06:47:37;;;;;;;10.50;10.20;;;-1.80;99.90;;;;;;6206946;23;20254;-85
2024/01/13 06:50:45;;;;;;;10.33;10.03;;;-1.80;99.90;;;;;;6226729;22;20210;-84
2024/01/13 06:53:44;;;;;;;10.40;10.10;;;-1.70;99.90;;;;;;6227294;23;20222;-85
2024/01/13 06:56:27;;;;;;;10.20;9.90;;;-1.80;99.90;;;;;;6226537;23;20257;-85
2024/01/13 06:59:05;;;;;;;9.90;9.60;;;-1.80;99.90;;;;;;6227430;22;20213;-85
2024/01/13 07:01:44;;;;;;;10.57;10.27;;;-1.70;99.90;;;;;;6226802;23;20197;-85
2024/01/13 07:04:33;;;;;;;;;;;;;;;;;;;;;
2024/01/13 07:07:28;;;;;;;10.60;10.30;;;-1.80;99.90;;;;;;6227049;23;20198;-85
2024/01/13 07:10:13;;;;;;;10.10;9.80;;;-1.80;99.90;;;;;;6230627;22;20202;-85
2024/01/13 07:13:12;;;;;;;10.43;10.13;;;-1.80;99.90;;;;;;6233639;23;20195;-85
2024/01/13 07:16:00;;;;;;;10.10;9.80;;;-1.70;99.90;;;;;;6232721;23;20195;-85
2024/01/13 07:21:40;;;;;;;10.10;9.80;;;-1.70;99.90;;;;;;6213345;23;20234;-85
2024/01/13 07:24:31;;;;;;;;;;;;;;;;;;;;;
2024/01/13 07:27:09;;;;;;;9.87;9.57;;;-1.70;99.90;;;;;;6236556;22;20202;-85
2024/01/13 07:29:53;;;;;;;10.03;9.73;;;-1.60;99.90;;;;;;6226935;22;20263;-85
2024/01/13 07:32:47;;;;;;;10.10;9.80;;;-1.60;99.90;;;;;;6227155;23;20193;-85
2024/01/13 07:35:42;;;;;;;9.50;9.20;;;-1.60;99.90;;;;;;6226751;23;20191;-85
2024/01/13 07:38:21;;;;;;;10.37;10.07;;;-1.60;99.90;;;;;;6226225;22;20210;-85
2024/01/13 07:40:59;;;;;;;10.00;9.70;;;-1.50;99.90;;;;;;6225720;23;20206;-85
2024/01/13 07:43:40;;;;;;;10.00;9.70;;;-1.50;99.90;;;;;;6226340;23;20497;-84
2024/01/13 07:46:36;;;;;;;;;;;;;;;;;;;;;
2024/01/13 07:49:16;;;;;;;9.83;9.53;;;-1.50;99.90;;;;;;6225915;22;20218;-85
2024/01/13 07:51:53;;;;;;;9.90;9.60;;;-1.50;99.90;;;;;;6225899;23;20285;-85
2024/01/13 07:54:41;;;;;;;10.03;9.73;;;-1.50;99.90;;;;;;6225855;23;20202;-85
2024/01/13 07:57:40;;;;;;;9.47;9.17;;;-1.50;99.90;;;;;;6225842;23;20202;-86
2024/01/13 08:00:29;;;;;;;;;;;;;;;;;;;;;
2024/01/13 08:03:08;;;;;;;9.40;9.10;;;-1.50;99.90;;;;;;6226051;23;20201;-85
2024/01/13 08:05:57;;;;;;;;;;;;;;;;;;;;;
2024/01/13 08:08:55;;;;;;;9.63;9.33;;;-1.40;99.90;;;;;;6226055;22;20205;-85
2024/01/13 08:11:33;;;;;;;9.33;9.03;;;-1.40;99.90;;;;;;6240206;22;20171;-86
2024/01/13 08:14:16;;;;;;;9.80;9.50;;;-1.40;99.90;;;;;;6249254;22;20202;-85
2024/01/13 08:20:03;;;;;;;9.47;9.17;;;-1.30;99.90;;;;;;6223501;22;20217;-85
2024/01/13 08:22:52;;;;;;;9.17;8.87;;;-1.30;99.90;;;;;;6226411;23;20202;-85
2024/01/13 08:25:47;;;;;;;;;;;;;;;;;;;;;
2024/01/13 08:28:38;;;;;;;9.60;9.30;;;-1.30;99.90;;;;;;6225876;22;20205;-85
2024/01/13 08:31:16;;;;;;;9.40;9.10;;;-1.20;99.90;;;;;;6225455;23;20202;-84
2024/01/13 08:34:02;;;;;;;9.40;9.10;;;-1.30;99.90;;;;;;6226585;23;20198;-84
2024/01/13 08:36:50;;;;;;;9.80;9.50;;;-1.30;99.90;;;;;;6227654;23;20248;-85
2024/01/13 08:39:25;;;;;;;9.30;9.00;;;-1.30;99.90;;;;;;6228477;22;20230;-85
2024/01/13 08:42:21;;;;;;;9.50;9.20;;;-1.30;99.90;;;;;;6228821;23;20687;-85
2024/01/13 08:44:55;;;;;;;9.70;9.40;;;-1.30;99.90;;;;;;6228191;23;20202;-85
2024/01/13 08:47:39;;;;;;;9.40;9.10;;;-1.40;99.90;;;;;;6227257;23;20217;-85
2024/01/13 08:50:15;;;;;;;9.60;9.30;;;-1.50;99.90;;;;;;6227035;22;20212;-85
2024/01/13 08:53:09;;;;;;;9.90;9.60;;;-1.50;99.90;;;;;;6227923;23;20198;-85
2024/01/13 08:55:48;;;;;;;9.90;9.60;;;-1.40;99.90;;;;;;6227012;23;20193;-85
2024/01/13 08:58:22;;;;;;;9.73;9.43;;;-1.40;99.90;;;;;;6226706;22;20206;-85
2024/01/13 09:01:03;;;;;;;9.47;9.17;;;-1.40;99.90;;;;;;6227380;23;20234;-85
2024/01/13 09:03:46;;;;;;;9.50;9.20;;;-1.40;99.90;;;;;;6227271;23;20198;-85
2024/01/13 09:06:48;;;;;;;9.43;9.13;;;-1.40;99.90;;;;;;6227384;23;20252;-85
2024/01/13 09:09:42;;;;;;;9.40;9.10;;;-1.50;99.90;;;;;;6226541;22;20215;-85
2024/01/13 09:12:38;;;;;;;9.63;9.33;;;-1.40;99.90;;;;;;6241881;23;20187;-88
2024/01/13 09:15:34;;;;;;;;;;;;;;;;;;;;;
2024/01/13 09:18:15;;;;;;;9.80;9.50;;;-1.40;99.90;;;;;;6200233;23;20234;-85
2024/01/13 09:20:49;;;;;;;9.70;9.40;;;-1.40;99.90;;;;;;6229466;23;20225;-85
2024/01/13 09:23:48;;;;;;;;;;;;;;;;;;;;;
2024/01/13 09:26:33;;;;;;;9.17;8.87;;;-1.30;99.90;;;;;;6247825;22;20186;-86
2024/01/13 09:32:21;;;;;;;9.50;9.20;;;-1.30;99.90;;;;;;6220398;23;20241;-86
2024/01/13 09:35:23;;;;;;;9.20;8.90;;;-1.30;99.90;;;;;;6227990;23;20208;-86
2024/01/13 09:38:27;;;;;;;9.30;9.00;;;-1.30;99.90;;;;;;6222692;22;20205;-86
2024/01/13 09:41:16;;;;;;;9.50;9.20;;;-1.20;99.90;;;;;;6228589;23;20213;-85
2024/01/13 09:44:29;;;;;;;9.43;9.13;;;-1.20;99.90;;;;;;6228287;23;20285;-86
2024/01/13 09:47:08;;;;;;;9.17;8.87;;;-1.30;99.90;;;;;;6225524;23;20194;-85
2024/01/13 09:50:11;;;;;;;;;;;;;;;;;;;;;
2024/01/13 09:53:01;;;;;;;9.70;9.40;;;-1.20;99.90;;;;;;6104743;23;20252;-86
2024/01/13 09:55:36;;;;;;;9.40;9.10;;;-1.20;99.90;;;;;;6197094;23;20209;-86
2024/01/13 09:58:27;;;;;;;9.23;8.93;;;-1.30;99.90;;;;;;6232106;22;20208;-85
2024/01/13 10:01:31;;;;;;;;;;;;;;;;;;;;;
2024/01/13 10:04:36;;;;;;;9.40;9.10;;;-1.30;99.90;;;;;;6250584;22;20208;-86
2024/01/13 10:07:28;;;;;;;8.70;8.50;;;-1.30;99.90;;;;;;6244744;22;20255;-86
2024/01/13 10:10:38;;;;;;;9.20;8.90;;;-1.30;99.90;;;;;;6227582;22;20236;-85
2024/01/13 10:13:20;;;;;;;10.10;9.80;;;-1.30;99.90;;;;;;6227964;23;20205;-86
2024/01/13 10:15:58;;;;;;;9.50;9.20;;;-1.30;99.90;;;;;;6227056;23;20203;-85
2024/01/13 10:18:36;;;;;;;9.43;9.13;;;-1.30;99.90;;;;;;6227588;22;20259;-85
2024/01/13 10:21:22;;;;;;;9.27;8.97;;;-1.30;99.90;;;;;;6227519;23;20221;-86
2024/01/13 10:23:57;;;;;;;9.53;9.23;;;-1.30;99.90;;;;;;6242087;22;20290;-87
2024/01/13 10:26:48;;;;;;;9.10;8.80;;;-1.30;99.90;;;;;;6247028;22;20191;-86
2024/01/13 10:29:40;;;;;;;9.53;9.23;;;-1.30;99.90;;;;;;6227629;22;20206;-86
2024/01/13 10:32:38;;;;;;;9.57;9.27;;;-1.40;99.90;;;;;;6228007;23;20201;-86
2024/01/13 10:35:19;;;;;;;9.30;9.00;;;-1.40;99.90;;;;;;6237552;22;20246;-86
2024/01/13 10:37:54;;;;;;;9.20;8.90;;;-1.50;99.90;;;;;;6245979;22;20205;-86
2024/01/13 10:40:33;;;;;;;8.87;8.67;;;-1.40;99.90;;;;;;6227974;23;20254;-85
2024/01/13 10:43:10;;;;;;;9.37;9.07;;;-1.40;99.90;;;;;;6227111;23;20197;-86
2024/01/13 10:46:09;;;;;;;8.73;8.53;;;-1.40;99.90;;;;;;6229716;22;20261;-86
2024/01/13 10:48:58;;;;;;;9.30;9.00;;;-1.40;99.90;;;;;;6248615;22;20193;-86
2024/01/13 10:52:02;;;;;;;9.43;9.13;;;-1.40;99.90;;;;;;6229135;23;20205;-86
2024/01/13 10:55:01;;;;;;;9.47;9.17;;;-1.40;99.90;;;;;;6219571;23;20205;-86
2024/01/13 10:58:22;;;;;;;9.50;9.20;;;-1.40;99.90;;;;;;6226911;23;20198;-86
2024/01/13 11:01:02;;;;;;;9.33;9.03;;;-1.30;99.90;;;;;;6214378;23;20205;-86
2024/01/13 11:04:00;;;;;;;9.60;9.30;;;-1.30;99.90;;;;;;6226375;23;20245;-85
2024/01/13 11:06:55;;;;;;;;;;;;;;;;;;;;;
2024/01/13 11:09:38;;;;;;;9.37;9.07;;;-1.30;99.90;;;;;;6226745;22;20236;-86
2024/01/13 11:12:24;;;;;;;9.10;8.80;;;-1.30;99.90;;;;;;6227129;23;20214;-86
2024/01/13 11:15:10;;;;;;;8.90;8.70;;;-1.30;99.90;;;;;;6227557;23;20201;-86
2024/01/13 11:17:59;;;;;;;9.07;8.77;;;-1.40;99.90;;;;;;6228401;23;20230;-86
2024/01/13 11:21:02;;;;;;;9.30;9.00;;;-1.40;99.90;;;;;;6226892;23;20198;-86
2024/01/13 11:27:09;;;;;;;9.17;8.87;;;-1.40;99.90;;;;;;6105006;23;20207;-87
2024/01/13 11:29:47;;;;;;;8.63;8.43;;;-1.40;99.90;;;;;;6203782;23;20306;-86
2024/01/13 11:32:24;;;;;;;9.10;8.80;;;-1.40;99.90;;;;;;6226035;23;20231;-87
2024/01/13 11:35:12;;;;;;;9.03;8.73;;;-1.30;99.90;;;;;;6226823;23;20319;-87
2024/01/13 11:37:54;;;;;;;9.50;9.20;;;-1.30;99.90;;;;;;6249851;22;20182;-87
2024/01/13 11:43:31;;;;;;;9.27;8.97;;;-1.30;99.90;;;;;;6227238;23;20206;-86
2024/01/13 11:46:08;;;;;;;9.00;8.70;;;-1.40;99.90;;;;;;6226618;23;20194;-86
2024/01/13 11:48:40;;;;;;;9.23;8.93;;;-1.40;99.90;;;;;;6225173;22;20259;-81
2024/01/13 11:51:13;;;;;;;9.20;8.90;;;-1.40;99.90;;;;;;6202635;23;20352;-80
2024/01/13 11:53:43;;;;;;;9.40;9.10;;;-1.40;99.90;;;;;;6201584;23;20191;-79
2024/01/13 11:56:14;;;;;;;8.90;8.67;;;-1.40;99.90;;;;;;6201569;23;20199;-81
2024/01/13 11:58:42;;;;;;;9.33;9.03;;;-1.40;99.90;;;;;;6201088;23;20214;-81
2024/01/13 12:01:11;;;;;;;9.40;9.10;;;-1.40;99.90;;;;;;6201490;23;21029;-80
2024/01/13 12:03:41;;;;;;;9.30;9.00;;;-1.40;99.90;;;;;;6200285;23;20202;-80
2024/01/13 12:06:10;;;;;;;8.97;8.67;;;-1.40;99.90;;;;;;6199387;23;20215;-80
2024/01/13 12:08:37;;;;;;;9.20;8.90;;;-1.40;99.90;;;;;;6199741;23;20231;-81
2024/01/13 12:11:20;;;;;;;8.80;8.60;;;-1.40;99.90;;;;;;6201286;23;20198;-80
2024/01/13 12:13:47;;;;;;;9.07;8.77;;;-1.40;99.90;;;;;;6200732;23;20198;-81
2024/01/13 12:16:14;;;;;;;8.90;8.70;;;-1.40;99.90;;;;;;6200319;23;20199;-81
2024/01/13 12:18:47;;;;;;;9.37;9.07;;;-1.40;99.90;;;;;;6201855;23;20202;-81
2024/01/13 12:21:15;;;;;;;8.60;8.40;;;-1.40;99.90;;;;;;6201478;23;20205;-81
2024/01/13 12:23:43;;;;;;;9.20;8.90;;;-1.50;99.90;;;;;;6201286;23;20256;-81
2024/01/13 12:26:13;;;;;;;9.17;8.87;;;-1.50;99.90;;;;;;6201786;23;20187;-81
2024/01/13 12:28:41;;;;;;;9.23;8.93;;;-1.50;99.90;;;;;;6201055;23;20201;-80
2024/01/13 12:31:08;;;;;;;8.70;8.50;;;-1.50;99.90;;;;;;6201411;23;20197;-81
2024/01/13 12:33:36;;;;;;;9.20;8.90;;;-1.50;99.90;;;;;;6201602;23;20261;-80
2024/01/13 12:36:05;;;;;;;8.63;8.43;;;-1.40;99.90;;;;;;6200528;23;20197;-81
2024/01/13 12:38:33;;;;;;;8.93;8.73;;;-1.40;99.90;;;;;;6201300;23;20230;-81
2024/01/13 12:41:01;;;;;;;8.60;8.40;;;-1.40;99.90;;;;;;6201421;23;20294;-82
2024/01/13 12:43:29;;;;;;;8.90;8.70;;;-1.50;99.90;;;;;;6200657;23;20198;-80
2024/01/13 12:45:59;;;;;;;9.20;8.90;;;-1.50;99.90;;;;;;6200445;23;20246;-80
2024/01/13 12:48:27;;;;;;;8.97;8.70;;;-1.50;99.90;;;;;;6200263;23;20225;-80
2024/01/13 12:50:54;;;;;;;8.80;8.60;;;-1.50;99.90;;;;;;6200745;23;20237;-81
2024/01/13 12:53:26;;;;;;;8.60;8.40;;;-1.50;99.90;;;;;;6200432;23;20203;-81
2024/01/13 12:55:54;;;;;;;9.00;8.77;;;-1.50;99.90;;;;;;6200166;23;20190;-81
2024/01/13 12:58:22;;;;;;;8.57;8.37;;;-1.50;99.90;;;;;;6200788;23;20199;-81
2024/01/13 13:00:50;;;;;;;8.03;7.83;;;-1.40;99.90;;;;;;6200627;23;20198;-81
2024/01/13 13:03:17;;;;;;;8.27;8.07;;;-1.50;99.90;;;;;;6203312;23;20208;-81
2024/01/13 13:05:46;;;;;;;8.90;8.70;;;-1.50;99.90;;;;;;6204420;23;20567;-81
2024/01/13 13:08:13;;;;;;;8.60;8.40;;;-1.60;99.90;;;;;;6202458;23;20286;-81
2024/01/13 13:10:40;;;;;;;9.03;8.73;;;-1.60;99.90;;;;;;6201883;23;20206;-81
2024/01/13 13:13:08;;;;;;;9.30;9.00;;;-1.60;99.90;;;;;;6201651;23;20206;-81
2024/01/13 13:15:35;;;;;;;9.17;8.87;;;-1.60;99.90;;;;;;6201156;23;20237;-80
2024/01/13 13:18:04;;;;;;;8.57;8.37;;;-1.70;99.90;;;;;;6203070;23;20215;-81
2024/01/13 13:20:33;;;;;;;9.00;8.77;;;-1.70;99.90;;;;;;6201374;23;20207;-81
2024/01/13 13:23:00;;;;;;;8.60;8.40;;;-1.70;99.90;;;;;;6200909;23;20258;-81
2024/01/13 13:25:27;;;;;;;8.83;8.63;;;-1.70;99.90;;;;;;6201029;23;20270;-81
2024/01/13 13:27:55;;;;;;;9.10;8.80;;;-1.80;99.90;;;;;;6201024;23;20221;-81
2024/01/13 13:30:23;;;;;;;8.57;8.37;;;-1.70;99.90;;;;;;6200629;23;20206;-81
2024/01/13 13:32:50;;;;;;;9.20;8.90;;;-1.70;99.90;;;;;;6202384;23;20234;-81
2024/01/13 13:35:19;;;;;;;8.60;8.40;;;-1.70;99.90;;;;;;6211449;23;20199;-81
2024/01/13 13:37:48;;;;;;;8.83;8.63;;;-1.70;99.90;;;;;;6202840;23;20194;-81
2024/01/13 13:40:16;;;;;;;8.97;8.73;;;-1.70;99.90;;;;;;6202293;23;20276;-80
2024/01/13 13:42:43;;;;;;;9.00;8.80;;;-1.70;99.90;;;;;;6202831;23;20199;-81
2024/01/13 13:45:10;;;;;;;9.23;8.93;;;-1.70;99.90;;;;;;6202109;23;20246;-81
2024/01/13 13:47:38;;;;;;;8.70;8.50;;;-1.70;99.90;;;;;;6204533;23;20202;-81
2024/01/13 13:50:06;;;;;;;9.03;8.77;;;-1.80;99.90;;;;;;6203434;23;20210;-81
2024/01/13 13:52:35;;;;;;;8.70;8.50;;;-1.70;99.90;;;;;;6202501;23;20215;-81
2024/01/13 13:55:02;;;;;;;8.43;8.23;;;-1.70;99.90;;;;;;6202672;23;20198;-81
2024/01/13 13:57:30;;;;;;;9.10;8.80;;;-1.80;99.90;;;;;;6201266;23;20207;-80
2024/01/13 13:59:57;;;;;;;8.57;8.37;;;-1.70;99.90;;;;;;6207943;23;20289;-81
2024/01/13 14:02:24;;;;;;;9.23;8.93;;;-1.70;99.90;;;;;;6202025;23;20218;-81
2024/01/13 14:04:51;;;;;;;9.30;9.00;;;-1.70;99.90;;;;;;6207511;23;20641;-81
2024/01/13 14:07:19;;;;;;;9.13;8.83;;;-1.80;99.90;;;;;;6205459;23;20258;-80
2024/01/13 14:09:47;;;;;;;8.93;8.73;;;-1.80;99.90;;;;;;6205380;23;20202;-81
2024/01/13 14:12:15;;;;;;;9.23;8.93;;;-1.80;99.90;;;;;;6205508;23;20202;-81
2024/01/13 14:14:42;;;;;;;9.33;9.03;;;-1.80;99.90;;;;;;6201887;23;20186;-80
2024/01/13 14:17:10;;;;;;;9.30;9.00;;;-1.80;99.90;;;;;;6204433;23;20195;-81
2024/01/13 14:19:37;;;;;;;9.10;8.80;;;-1.80;99.90;;;;;;6201311;23;20209;-81
2024/01/13 14:22:05;;;;;;;9.17;8.87;;;-1.80;99.90;;;;;;6201950;23;20195;-79
2024/01/13 14:24:32;;;;;;;9.33;9.03;;;-1.90;99.90;;;;;;6201531;23;20222;-79
2024/01/13 14:27:01;;;;;;;8.60;8.40;;;-1.90;99.90;;;;;;6201339;23;20230;-79
2024/01/13 14:29:28;;;;;;;9.23;8.93;;;-1.90;99.90;;;;;;6201667;23;20204;-80
2024/01/13 14:31:56;;;;;;;9.17;8.87;;;-2.00;99.90;;;;;;6201334;23;20197;-80
2024/01/13 14:34:23;;;;;;;8.83;8.63;;;-2.00;99.90;;;;;;6201956;23;20196;-80
2024/01/13 14:36:50;;;;;;;9.37;9.07;;;-2.00;99.90;;;;;;6202431;23;20195;-79
2024/01/13 14:39:18;;;;;;;8.90;8.70;;;-2.10;99.90;;;;;;6204907;23;20199;-80
2024/01/13 14:41:45;;;;;;;9.20;8.90;;;-2.00;99.90;;;;;;6203724;23;20209;-81
2024/01/13 14:44:14;;;;;;;9.03;8.77;;;-2.00;99.90;;;;;;6202836;23;20197;-80
2024/01/13 14:46:42;;;;;;;9.30;9.00;;;-2.00;99.90;;;;;;6201660;23;20194;-80
2024/01/13 14:49:10;;;;;;;9.20;8.90;;;-2.00;99.90;;;;;;6201261;23;20221;-80
2024/01/13 14:51:40;;;;;;;9.07;8.83;;;-2.00;99.90;;;;;;6201920;23;20202;-81
2024/01/13 14:54:07;;;;;;;9.30;9.00;;;-2.00;99.90;;;;;;6201693;23;20225;-80
2024/01/13 14:56:38;;;;;;;9.10;8.80;;;-2.00;99.90;;;;;;6200919;23;20252;-80
2024/01/13 14:59:07;;;;;;;9.23;8.93;;;-2.00;99.90;;;;;;6200408;23;20203;-80
2024/01/13 15:01:36;;;;;;;9.03;8.80;;;-2.00;99.90;;;;;;6200651;23;20258;-80
2024/01/13 15:04:04;;;;;;;9.33;9.03;;;-2.10;99.90;;;;;;6204241;23;20196;-80
2024/01/13 15:06:31;;;;;;;8.93;8.73;;;-2.10;99.90;;;;;;6203347;23;20202;-81
2024/01/13 15:08:58;;;;;;;9.37;9.07;;;-2.10;99.90;;;;;;6202931;23;20199;-80
2024/01/13 15:11:26;;;;;;;8.70;8.50;;;-2.10;99.90;;;;;;6203214;23;20251;-80
2024/01/13 15:13:53;;;;;;;9.20;8.90;;;-2.10;99.90;;;;;;6202659;23;20255;-81
2024/01/13 15:16:24;;;;;;;8.97;8.77;;;-2.20;99.90;;;;;;6203876;23;20337;-81
2024/01/13 15:18:52;;;;;;;9.50;9.20;;;-2.10;99.90;;;;;;6202304;23;20216;-81
2024/01/13 15:21:20;;;;;;;9.23;8.93;;;-2.20;99.90;;;;;;6202013;23;20208;-81
2024/01/13 15:23:47;;;;;;;9.10;8.80;;;-2.20;99.90;;;;;;6201444;23;20207;-80
2024/01/13 15:26:17;;;;;;;9.50;9.20;;;-2.20;99.90;;;;;;6201151;23;20263;-81
2024/01/13 15:28:45;;;;;;;9.23;8.93;;;-2.20;99.90;;;;;;6202077;23;20212;-80
2024/01/13 15:31:12;;;;;;;9.80;9.50;;;-2.20;99.90;;;;;;6210104;23;20223;-80
2024/01/13 15:33:39;;;;;;;9.37;9.07;;;-2.30;99.90;;;;;;6215346;22;20207;-79
2024/01/13 15:36:08;;;;;;;9.60;9.30;;;-2.30;99.90;;;;;;6219717;22;20246;-79
2024/01/13 15:38:35;;;;;;;9.20;8.90;;;-2.20;99.90;;;;;;6218782;22;20198;-79
2024/01/13 15:41:03;;;;;;;9.50;9.20;;;-2.20;99.90;;;;;;6219297;22;20179;-79
2024/01/13 15:43:30;;;;;;;9.13;8.83;;;-2.20;99.90;;;;;;6219356;22;20191;-78
2024/01/13 15:45:57;;;;;;;9.30;9.00;;;-2.10;99.90;;;;;;6220156;22;20184;-78
2024/01/13 15:48:28;;;;;;;9.60;9.30;;;-2.20;99.90;;;;;;6220149;22;20190;-79
2024/01/13 15:50:55;;;;;;;9.23;8.93;;;-2.20;99.90;;;;;;6219889;22;20195;-78
2024/01/13 15:53:23;;;;;;;9.20;8.90;;;-2.20;99.90;;;;;;6220307;22;20210;-79
2024/01/13 15:55:51;;;;;;;9.60;9.30;;;-2.20;99.90;;;;;;6219802;22;20194;-79
2024/01/13 15:58:20;;;;;;;9.40;9.10;;;-2.20;99.90;;;;;;6220509;22;20185;-79
2024/01/13 16:00:50;;;;;;;9.60;9.30;;;-2.20;99.90;;;;;;6220138;22;20192;-79
2024/01/13 16:03:18;;;;;;;9.40;9.10;;;-2.20;99.90;;;;;;6220605;22;20179;-79
2024/01/13 16:05:45;;;;;;;9.87;9.57;;;-2.20;99.90;;;;;;6220729;22;20200;-79
2024/01/13 16:08:13;;;;;;;8.83;8.63;;;-2.10;99.90;;;;;;6220335;22;20202;-79
2024/01/13 16:10:41;;;;;;;9.10;8.90;;;-2.10;99.90;;;;;;6219932;22;20183;-78
2024/01/13 16:13:09;;;;;;;9.13;8.83;;;-2.10;99.90;;;;;;6213673;22;20199;-80
2024/01/13 16:15:36;;;;;;;9.10;8.80;;;-2.10;99.90;;;;;;6203123;23;20204;-79